Time;durP1;ratioP1;P1;durP2;ratioP2;P2;SDS_P1;SDS_P2;PMS_P1;PMS_P2;Temp;Humidity;BMP_temperature;BMP_pressure;BME280_temperature;BME280_humidity;BME280_pressure;Samples;Min_cycle;Max_cycle;Signal;HPM_P1;HPM_P2
2022/05/03 00:01:49;;;;;;;5.00;2.13;;;;;;;9.47;65.47;96297.09;4963311;28;20048;-63
2022/05/03 00:04:26;;;;;;;3.55;2.63;;;;;;;9.54;65.71;96292.50;4993262;28;20473;-63
2022/05/03 00:07:07;;;;;;;5.22;2.00;;;;;;;9.61;65.03;96290.50;4993270;28;20366;-65
2022/05/03 00:09:54;;;;;;;3.35;2.13;;;;;;;9.59;65.11;96285.34;4993361;28;20019;-65
2022/05/03 00:12:32;;;;;;;2.95;2.03;;;;;;;9.59;65.46;96284.50;4976085;28;20374;-63
2022/05/03 00:15:00;;;;;;;3.55;2.38;;;;;;;9.63;64.76;96290.47;4993311;28;20448;-66
2022/05/03 00:17:26;;;;;;;4.15;2.33;;;;;;;9.59;63.96;96287.09;4993230;28;20041;-63
2022/05/03 00:19:53;;;;;;;4.75;2.67;;;;;;;9.54;63.83;96289.88;4996623;28;20109;-63
2022/05/03 00:22:22;;;;;;;2.65;2.25;;;;;;;9.52;64.52;96281.28;4996997;28;20027;-64
2022/05/03 00:24:48;;;;;;;2.50;2.25;;;;;;;9.53;64.82;96276.88;4996695;28;20534;-64
2022/05/03 00:27:14;;;;;;;3.30;2.20;;;;;;;9.59;64.19;96287.09;4996818;28;20062;-65
2022/05/03 00:29:40;;;;;;;5.80;2.50;;;;;;;9.61;64.21;96291.34;4996759;28;20534;-63
2022/05/03 00:32:06;;;;;;;4.32;2.30;;;;;;;9.63;64.33;96295.69;4996609;28;20030;-65
2022/05/03 00:34:33;;;;;;;2.28;2.08;;;;;;;9.67;63.64;96297.25;4996589;28;20030;-63
2022/05/03 00:36:59;;;;;;;4.78;1.98;;;;;;;9.66;64.04;96285.13;4996709;28;20023;-65
2022/05/03 00:39:25;;;;;;;3.70;2.30;;;;;;;9.69;64.51;96295.44;4996651;28;20018;-63
2022/05/03 00:42:06;;;;;;;2.33;2.03;;;;;;;9.81;64.08;96292.34;4996384;28;20538;-65
2022/05/03 00:45:00;;;;;;;2.10;1.92;;;;;;;9.87;64.83;96286.03;4996550;28;20066;-64
2022/05/03 00:47:51;;;;;;;2.63;2.28;;;;;;;9.92;63.94;96294.53;4988968;28;20030;-65
2022/05/03 00:50:29;;;;;;;2.63;2.03;;;;;;;9.84;63.56;96283.53;4979025;28;20385;-63
2022/05/03 00:53:15;;;;;;;3.15;1.80;;;;;;;9.83;64.69;96280.09;4996332;28;20038;-65
2022/05/03 00:56:00;;;;;;;4.03;2.60;;;;;;;9.84;64.91;96286.13;4995862;28;20046;-64
2022/05/03 00:58:35;;;;;;;2.67;2.15;;;;;;;9.76;64.06;96285.59;4996255;28;20026;-62
2022/05/03 01:01:05;;;;;;;5.60;2.17;;;;;;;9.79;63.66;96283.75;4996247;28;20107;-64
2022/05/03 01:03:46;;;;;;;3.17;2.08;;;;;;;9.78;65.21;96275.97;4996066;28;20043;-65
2022/05/03 01:06:23;;;;;;;4.57;2.20;;;;;;;9.75;64.27;96281.28;4995994;28;20038;-64
2022/05/03 01:09:03;;;;;;;3.08;2.10;;;;;;;9.73;65.07;96271.75;4996025;28;20109;-63
2022/05/03 01:11:55;;;;;;;5.07;2.08;;;;;;;9.67;64.02;96277.22;4995941;28;20175;-64
2022/05/03 01:14:42;;;;;;;3.53;1.98;;;;;;;9.64;63.57;96273.88;4996132;28;20038;-65
2022/05/03 01:17:24;;;;;;;2.45;1.98;;;;;;;9.50;63.38;96269.16;4995875;28;20125;-64
2022/05/03 01:20:03;;;;;;;9.90;2.10;;;;;;;9.50;63.48;96270.03;4995891;28;20022;-64
2022/05/03 01:22:56;;;;;;;5.05;2.13;;;;;;;9.40;63.74;96273.88;4995804;28;20030;-64
2022/05/03 01:26:01;;;;;;;1.75;1.60;;;;;;;9.40;63.79;96272.13;4995793;28;20041;-64
2022/05/03 01:28:48;;;;;;;5.07;2.10;;;;;;;9.34;63.95;96269.75;4956043;28;20034;-65
2022/05/03 01:31:14;;;;;;;3.03;1.90;;;;;;;9.30;64.29;96261.19;4995621;28;20059;-64
2022/05/03 01:33:48;;;;;;;4.90;2.08;;;;;;;9.27;64.09;96260.47;4995551;28;20031;-65
2022/05/03 01:36:30;;;;;;;2.35;2.10;;;;;;;9.26;65.05;96263.94;4995473;28;20023;-63
2022/05/03 01:39:44;;;;;;;3.65;1.92;;;;;;;9.24;64.87;96261.41;4995509;28;20042;-65
2022/05/03 01:42:40;;;;;;;2.13;1.70;;;;;;;9.28;64.91;96260.41;4916289;29;20061;-62
2022/05/03 01:45:08;;;;;;;2.17;1.95;;;;;;;9.29;64.62;96266.44;4953083;28;20050;-63
2022/05/03 01:47:53;;;;;;;3.55;2.05;;;;;;;9.27;65.13;96263.06;4975723;28;20421;-64
2022/05/03 01:50:46;;;;;;;8.05;2.25;;;;;;;9.20;64.86;96259.81;4975759;28;20031;-62
2022/05/03 01:53:15;;;;;;;1.95;1.60;;;;;;;9.25;65.53;96260.50;4975767;28;20037;-64
2022/05/03 01:56:08;;;;;;;8.75;2.10;;;;;;;9.27;66.00;96257.84;4975746;28;20033;-64
2022/05/03 01:59:07;;;;;;;4.30;1.92;;;;;;;9.34;66.24;96256.72;4975636;28;20158;-64
2022/05/03 02:01:53;;;;;;;2.78;2.00;;;;;;;9.33;66.13;96260.22;4975603;28;20107;-65
2022/05/03 02:04:44;;;;;;;4.38;1.98;;;;;;;9.30;65.25;96255.97;4975660;28;20038;-65
2022/05/03 02:07:30;;;;;;;1.63;1.52;;;;;;;9.27;64.79;96245.63;4975532;28;20381;-64
2022/05/03 02:10:10;;;;;;;7.30;2.00;;;;;;;9.25;65.06;96251.81;4975659;28;20388;-64
2022/05/03 02:12:38;;;;;;;4.35;2.00;;;;;;;9.23;65.21;96255.34;4975433;28;20465;-63
2022/05/03 02:15:09;;;;;;;3.25;2.00;;;;;;;9.27;65.56;96250.00;4975249;28;20030;-63
2022/05/03 02:18:03;;;;;;;5.88;1.83;;;;;;;9.26;65.35;96248.28;4975335;28;20031;-64
2022/05/03 02:20:41;;;;;;;3.90;2.17;;;;;;;9.27;65.62;96250.84;4975336;28;20031;-63
2022/05/03 02:23:41;;;;;;;3.33;2.10;;;;;;;9.27;65.99;96260.47;4975268;28;20031;-63
2022/05/03 02:26:30;;;;;;;3.38;1.85;;;;;;;9.17;65.47;96260.78;4975147;28;20114;-65
2022/05/03 02:29:09;;;;;;;6.35;2.28;;;;;;;9.16;65.84;96253.00;4947632;28;20082;-63
2022/05/03 02:31:43;;;;;;;2.55;1.60;;;;;;;9.12;66.28;96252.25;4975131;28;20038;-64
2022/05/03 02:34:33;;;;;;;3.25;2.03;;;;;;;9.16;66.31;96245.19;4974942;28;20045;-63
2022/05/03 02:37:05;;;;;;;3.53;2.22;;;;;;;9.16;65.76;96245.19;4975013;28;20062;-64
2022/05/03 02:39:31;;;;;;;4.45;1.80;;;;;;;9.17;66.45;96233.84;4975087;28;20031;-63
2022/05/03 02:41:59;;;;;;;3.83;2.10;;;;;;;9.16;66.63;96243.44;4981108;28;20039;-63
2022/05/03 02:44:29;;;;;;;3.80;2.00;;;;;;;9.11;67.17;96245.34;4994191;28;20023;-65
2022/05/03 02:47:00;;;;;;;2.95;1.80;;;;;;;9.14;67.04;96244.38;4994081;28;20037;-63
2022/05/03 02:49:39;;;;;;;5.70;1.63;;;;;;;9.18;66.75;96244.22;4994164;28;20102;-65
2022/05/03 02:52:24;;;;;;;4.35;1.85;;;;;;;9.09;66.48;96247.16;4994203;28;20030;-63
2022/05/03 02:55:27;;;;;;;2.83;2.03;;;;;;;9.00;66.91;96248.34;4994143;28;20034;-64
2022/05/03 02:58:05;;;;;;;3.28;2.13;;;;;;;9.07;67.35;96254.22;4993964;28;20396;-65
2022/05/03 03:03:56;;;;;;;3.47;1.80;;;;;;;9.07;67.69;96260.28;4994369;28;20065;-63
2022/05/03 03:06:23;;;;;;;2.55;1.90;;;;;;;9.11;67.18;96253.19;4993795;28;20035;-63
2022/05/03 03:08:54;;;;;;;2.83;1.88;;;;;;;9.16;67.85;96253.00;4993848;28;20057;-65
2022/05/03 03:11:22;;;;;;;2.53;1.70;;;;;;;9.20;68.17;96259.81;4993855;28;20026;-64
2022/05/03 03:14:07;;;;;;;2.55;1.90;;;;;;;9.29;68.64;96266.44;4993839;28;20476;-63
2022/05/03 03:16:34;;;;;;;4.85;1.70;;;;;;;9.27;68.07;96257.84;4993787;28;20125;-63
2022/05/03 03:19:14;;;;;;;4.20;2.03;;;;;;;9.30;68.11;96271.63;4993614;28;20030;-64
2022/05/03 03:21:48;;;;;;;2.90;1.58;;;;;;;9.33;67.03;96273.28;4993678;28;20469;-64
2022/05/03 03:24:15;;;;;;;4.10;1.95;;;;;;;9.37;67.45;96267.03;4993640;28;20031;-64
2022/05/03 03:26:43;;;;;;;3.13;1.70;;;;;;;9.39;67.62;96265.19;4993654;28;20026;-62
2022/05/03 03:29:10;;;;;;;32.03;2.85;;;;;;;9.45;67.63;96266.75;4993616;28;20037;-64
2022/05/03 03:31:37;;;;;;;38.70;3.10;;;;;;;9.47;67.42;96265.78;4993664;28;20448;-65
2022/05/03 03:34:05;;;;;;;9.70;2.28;;;;;;;9.49;67.54;96263.09;4993610;28;20058;-66
2022/05/03 03:36:32;;;;;;;25.48;2.75;;;;;;;9.51;69.32;96270.88;4993605;28;20132;-63
2022/05/03 03:38:58;;;;;;;2.40;1.50;;;;;;;9.51;68.85;96266.50;4993535;28;20535;-63
2022/05/03 03:41:25;;;;;;;3.28;1.85;;;;;;;9.48;67.61;96270.09;4993313;28;20026;-64
2022/05/03 03:43:53;;;;;;;3.95;2.40;;;;;;;9.52;68.44;96270.81;4993514;28;20540;-63
2022/05/03 03:46:19;;;;;;;5.00;2.00;;;;;;;9.59;69.46;96274.03;4993495;28;20105;-64
2022/05/03 03:48:45;;;;;;;3.30;1.60;;;;;;;9.59;67.71;96264.47;4993518;28;20485;-63
2022/05/03 03:51:14;;;;;;;3.65;1.88;;;;;;;9.63;69.28;96269.56;4993467;28;20026;-65
2022/05/03 03:53:41;;;;;;;2.25;1.50;;;;;;;9.63;68.65;96274.78;4994833;28;20031;-65
2022/05/03 03:56:07;;;;;;;2.00;1.65;;;;;;;9.61;68.76;96274.84;4997412;28;20495;-65
2022/05/03 03:58:34;;;;;;;3.35;2.10;;;;;;;9.66;70.05;96285.94;4997275;28;20030;-65
2022/05/03 04:01:00;;;;;;;3.15;2.05;;;;;;;9.65;69.16;96281.66;4997319;28;20106;-64
2022/05/03 04:03:26;;;;;;;5.10;1.83;;;;;;;9.70;67.49;96290.13;4997317;28;20144;-63
2022/05/03 04:05:53;;;;;;;2.53;1.80;;;;;;;9.71;68.94;96289.25;4996499;28;20039;-64
2022/05/03 04:08:24;;;;;;;5.43;2.00;;;;;;;9.66;67.46;96285.94;4997062;28;20035;-63
2022/05/03 04:10:50;;;;;;;6.78;1.80;;;;;;;9.65;67.32;96293.84;4997081;28;20031;-63
2022/05/03 04:13:16;;;;;;;7.15;1.98;;;;;;;9.67;69.95;96289.41;4997156;28;20019;-63
2022/05/03 04:15:42;;;;;;;6.25;2.00;;;;;;;9.66;69.55;96295.56;4997050;28;20033;-65
2022/05/03 04:18:09;;;;;;;2.83;2.00;;;;;;;9.69;69.87;96285.84;4979469;28;20054;-63
2022/05/03 04:20:35;;;;;;;3.47;2.00;;;;;;;9.71;69.76;96294.47;4996864;28;20040;-63
2022/05/03 04:23:01;;;;;;;1.80;1.70;;;;;;;9.73;69.41;96295.25;4996866;28;20031;-61
2022/05/03 04:25:27;;;;;;;3.90;1.88;;;;;;;9.71;68.81;96291.84;4996824;28;20171;-64
2022/05/03 04:27:53;;;;;;;7.63;1.90;;;;;;;9.71;69.10;96297.09;4996723;28;20492;-65
2022/05/03 04:30:19;;;;;;;2.83;1.75;;;;;;;9.79;69.03;96293.31;4996682;28;20468;-64
2022/05/03 04:32:44;;;;;;;4.32;2.00;;;;;;;9.82;68.95;96295.81;4996787;28;20033;-65
2022/05/03 04:35:10;;;;;;;2.70;1.92;;;;;;;9.92;69.30;96296.28;4996713;28;20034;-63
2022/05/03 04:37:36;;;;;;;7.03;2.08;;;;;;;9.96;68.08;96295.25;4996554;28;20030;-63
2022/05/03 04:40:01;;;;;;;3.40;1.55;;;;;;;10.03;68.78;96296.75;4996686;28;20065;-65
2022/05/03 04:42:27;;;;;;;3.22;2.00;;;;;;;10.09;69.22;96291.25;4996413;28;20065;-63
2022/05/03 04:44:53;;;;;;;7.32;1.80;;;;;;;10.10;69.90;96292.97;4996375;28;20080;-63
2022/05/03 04:47:18;;;;;;;3.40;1.85;;;;;;;10.17;69.66;96298.78;4996415;28;20076;-62
2022/05/03 04:49:44;;;;;;;5.78;1.88;;;;;;;10.19;69.55;96294.34;4996457;28;20408;-65
2022/05/03 04:52:10;;;;;;;8.70;2.22;;;;;;;10.24;68.50;96302.03;4996368;28;20101;-64
2022/05/03 04:54:37;;;;;;;2.47;1.90;;;;;;;10.28;67.21;96298.34;4996280;28;20029;-62
2022/05/03 04:57:07;;;;;;;3.60;1.60;;;;;;;10.31;67.72;96294.75;4996187;28;20160;-63
2022/05/03 04:59:33;;;;;;;4.35;2.30;;;;;;;10.34;68.46;96295.50;4996224;28;20022;-63
2022/05/03 05:01:59;;;;;;;3.10;2.10;;;;;;;10.39;68.07;96300.53;4996102;28;20026;-62
2022/05/03 05:04:25;;;;;;;3.45;1.67;;;;;;;10.47;66.86;96302.84;4995572;28;20026;-63
2022/05/03 05:06:50;;;;;;;4.07;2.20;;;;;;;10.49;66.63;96308.88;4996199;28;20039;-62
2022/05/03 05:09:16;;;;;;;3.47;2.08;;;;;;;10.57;66.52;96304.16;4978599;28;20492;-64
2022/05/03 05:11:42;;;;;;;3.80;1.98;;;;;;;10.51;67.06;96306.22;4996013;28;20023;-64
2022/05/03 05:14:08;;;;;;;3.20;1.90;;;;;;;10.58;66.43;96303.28;4996017;28;20027;-63
2022/05/03 05:16:34;;;;;;;2.28;1.77;;;;;;;10.66;66.86;96309.94;4995953;28;20027;-65
2022/05/03 05:18:59;;;;;;;3.78;2.95;;;;;;;10.74;67.23;96318.31;4995763;28;20496;-64
2022/05/03 05:21:25;;;;;;;4.78;2.28;;;;;;;10.79;66.11;96318.13;4995834;28;20031;-65
2022/05/03 05:23:51;;;;;;;7.60;2.63;;;;;;;10.81;64.99;96311.91;4995836;28;20034;-64
2022/05/03 05:26:16;;;;;;;2.80;2.08;;;;;;;10.87;64.47;96324.72;4995528;28;20034;-65
2022/05/03 05:28:42;;;;;;;2.65;1.77;;;;;;;10.89;63.61;96327.28;4995652;28;20023;-64
2022/05/03 05:31:07;;;;;;;6.03;2.88;;;;;;;10.88;63.02;96328.19;4995658;28;20091;-63
2022/05/03 05:33:33;;;;;;;7.07;3.30;;;;;;;10.90;64.49;96331.63;4995622;28;20370;-63
2022/05/03 05:35:59;;;;;;;11.90;4.25;;;;;;;10.98;65.25;96324.28;4995542;28;20026;-64
2022/05/03 05:38:24;;;;;;;8.95;5.05;;;;;;;11.03;65.93;96326.69;4995554;28;20030;-64
2022/05/03 05:40:52;;;;;;;8.30;4.07;;;;;;;11.08;65.97;96324.72;4995328;28;20042;-63
2022/05/03 05:43:17;;;;;;;11.98;3.30;;;;;;;11.09;65.88;96322.94;4995110;28;20124;-64
2022/05/03 05:45:43;;;;;;;9.32;3.30;;;;;;;11.10;65.45;96328.13;4961809;28;20105;-63
2022/05/03 05:48:09;;;;;;;5.53;3.03;;;;;;;11.13;66.16;96324.50;4995187;28;20054;-66
2022/05/03 05:50:36;;;;;;;6.53;2.20;;;;;;;11.19;66.22;96329.47;4995232;28;20060;-64
2022/05/03 05:55:45;;;;;;;4.57;2.38;;;;;;;11.30;63.30;96336.88;4995678;28;20036;-64
2022/05/03 05:58:11;;;;;;;2.00;1.80;;;;;;;11.29;62.30;96334.31;4995146;28;20026;-66
2022/05/03 06:00:37;;;;;;;3.03;2.15;;;;;;;11.32;61.58;96331.56;4995070;28;20033;-65
2022/05/03 06:03:03;;;;;;;8.68;2.30;;;;;;;11.36;61.35;96333.13;4994916;28;20026;-62
2022/05/03 06:05:31;;;;;;;2.60;2.13;;;;;;;11.29;60.65;96339.56;4995009;28;20420;-63
2022/05/03 06:07:56;;;;;;;6.40;2.20;;;;;;;11.30;60.92;96341.25;4994858;28;20035;-66
2022/05/03 06:10:23;;;;;;;5.03;1.60;;;;;;;11.35;61.04;96337.50;4994960;28;20026;-64
2022/05/03 06:12:50;;;;;;;2.65;1.63;;;;;;;11.42;60.58;96340.72;4994843;28;20038;-62
2022/05/03 06:15:16;;;;;;;2.03;1.35;;;;;;;11.44;59.66;96345.88;4994589;28;20026;-64
2022/05/03 06:17:42;;;;;;;2.38;1.40;;;;;;;11.44;59.88;96345.88;4994280;28;20030;-64
2022/05/03 06:20:09;;;;;;;2.70;1.77;;;;;;;11.41;60.73;96338.16;4994693;28;20026;-65
2022/05/03 06:22:34;;;;;;;3.42;1.77;;;;;;;11.47;62.70;96349.22;4994697;28;20096;-64
2022/05/03 06:25:00;;;;;;;4.68;1.83;;;;;;;11.49;63.38;96349.13;4994671;28;20524;-65
2022/05/03 06:27:25;;;;;;;4.15;2.50;;;;;;;11.49;64.08;96350.00;4994605;28;20034;-63
2022/05/03 06:29:51;;;;;;;2.42;1.40;;;;;;;11.44;63.50;96348.50;4994578;28;20366;-66
2022/05/03 06:32:16;;;;;;;4.45;2.03;;;;;;;11.35;64.87;96347.97;4994456;28;20022;-64
2022/05/03 06:34:42;;;;;;;4.72;2.65;;;;;;;11.33;66.73;96348.97;4994434;28;20035;-65
2022/05/03 06:37:07;;;;;;;3.15;1.70;;;;;;;11.28;66.93;96364.03;4994382;28;20030;-64
2022/05/03 06:39:38;;;;;;;2.45;1.73;;;;;;;11.25;67.08;96357.16;4994336;28;20046;-64
2022/05/03 06:42:05;;;;;;;;;;;;;;;11.28;68.65;96358.78;4994581;28;20069;-63
2022/05/03 06:44:30;;;;;;;4.65;2.20;;;;;;;11.25;68.44;96352.78;4994194;28;19960;-66
2022/05/03 06:46:56;;;;;;;3.47;2.30;;;;;;;11.27;69.03;96360.56;4994133;28;20058;-63
2022/05/03 06:49:21;;;;;;;4.05;2.10;;;;;;;11.21;68.99;96358.22;4994129;28;20033;-64
2022/05/03 06:51:47;;;;;;;3.95;2.20;;;;;;;11.17;69.36;96360.09;4994189;28;20027;-63
2022/05/03 06:54:12;;;;;;;4.18;2.05;;;;;;;11.15;69.13;96359.34;4994134;28;20037;-66
2022/05/03 06:56:39;;;;;;;3.08;2.05;;;;;;;11.10;69.43;96364.78;4993990;28;20049;-64
2022/05/03 06:59:08;;;;;;;2.78;2.53;;;;;;;11.14;68.99;96362.88;4994132;28;20038;-62
2022/05/03 07:01:35;;;;;;;2.67;2.17;;;;;;;11.15;69.81;96354.09;4994036;28;20030;-64
2022/05/03 07:04:01;;;;;;;2.65;2.22;;;;;;;11.19;71.37;96357.41;4993924;28;20026;-65
2022/05/03 07:06:26;;;;;;;3.33;2.20;;;;;;;11.07;70.67;96362.28;4994001;28;20033;-63
2022/05/03 07:08:52;;;;;;;2.40;2.05;;;;;;;11.01;69.65;96362.53;4993976;28;20388;-66
2022/05/03 07:11:18;;;;;;;2.47;1.88;;;;;;;11.00;70.21;96363.47;4976575;28;20018;-64
2022/05/03 07:13:44;;;;;;;5.35;2.47;;;;;;;10.94;70.49;96356.72;4993765;28;20054;-64
2022/05/03 07:16:09;;;;;;;2.75;2.15;;;;;;;10.99;71.17;96359.16;4993857;28;20034;-64
2022/05/03 07:24:04;;;;;;;2.75;2.08;;;;;;;11.09;71.90;96363.06;4994028;28;20496;-63
2022/05/03 07:26:30;;;;;;;5.50;1.55;;;;;;;11.15;69.63;96364.56;4993582;28;20440;-65
2022/05/03 07:28:56;;;;;;;6.72;2.13;;;;;;;11.23;69.50;96367.69;4993347;28;20026;-65
2022/05/03 07:31:23;;;;;;;3.13;2.15;;;;;;;11.33;69.74;96362.94;4993610;28;20028;-66
2022/05/03 07:33:49;;;;;;;6.07;2.05;;;;;;;11.39;69.92;96361.81;4993475;28;20034;-64
2022/05/03 07:36:17;;;;;;;7.75;2.10;;;;;;;11.41;71.70;96369.59;4993517;28;20030;-64
2022/05/03 07:38:43;;;;;;;2.63;2.15;;;;;;;11.38;70.20;96375.81;4993677;28;20500;-67
2022/05/03 07:41:09;;;;;;;8.00;2.50;;;;;;;11.23;70.12;96372.94;4993297;28;20050;-65
2022/05/03 07:43:35;;;;;;;6.80;2.28;;;;;;;11.24;71.45;96379.91;4993483;28;20038;-62
2022/05/03 07:46:01;;;;;;;5.13;3.08;;;;;;;11.10;71.81;96380.47;4993488;28;20031;-66
2022/05/03 07:48:27;;;;;;;5.45;2.92;;;;;;;11.06;72.79;96389.38;4993426;28;20053;-64
2022/05/03 07:50:53;;;;;;;4.43;2.70;;;;;;;11.01;73.43;96386.09;4993475;28;20038;-65
2022/05/03 07:53:19;;;;;;;6.32;2.88;;;;;;;11.01;74.09;96380.88;4993428;28;20125;-64
2022/05/03 07:55:46;;;;;;;3.30;2.67;;;;;;;11.10;73.53;96379.63;4993520;28;20520;-66
2022/05/03 07:58:11;;;;;;;2.38;2.17;;;;;;;11.15;72.95;96385.53;4993321;28;20022;-63
2022/05/03 08:00:37;;;;;;;7.05;3.47;;;;;;;11.19;72.50;96381.84;4993420;28;20837;-67
2022/05/03 08:03:04;;;;;;;5.00;2.60;;;;;;;11.30;73.62;96383.16;4993326;28;20547;-64
2022/05/03 08:05:30;;;;;;;4.78;2.10;;;;;;;11.33;73.88;96385.63;4993332;28;20031;-65
2022/05/03 08:07:55;;;;;;;4.82;2.42;;;;;;;11.42;73.61;96384.38;4993295;28;20049;-64
2022/05/03 08:10:21;;;;;;;3.35;2.22;;;;;;;11.49;73.99;96383.19;4993320;28;20073;-63
2022/05/03 08:12:51;;;;;;;5.85;2.50;;;;;;;11.60;75.03;96380.97;4993378;28;20031;-64
2022/05/03 08:15:20;;;;;;;6.83;2.20;;;;;;;11.70;74.04;96385.75;4993424;28;20021;-64
2022/05/03 08:17:47;;;;;;;3.30;2.33;;;;;;;11.82;74.80;96384.34;4993224;28;20347;-65
2022/05/03 08:20:13;;;;;;;3.65;2.03;;;;;;;11.93;70.39;96382.13;4993173;28;20477;-64
2022/05/03 08:22:39;;;;;;;3.35;1.70;;;;;;;11.93;66.80;96384.75;4993138;28;20393;-63
2022/05/03 08:25:06;;;;;;;4.57;2.00;;;;;;;11.80;69.45;96387.06;4993279;28;20105;-65
2022/05/03 08:27:33;;;;;;;3.38;1.90;;;;;;;11.75;68.40;96384.63;4992994;28;20034;-63
2022/05/03 08:29:59;;;;;;;4.45;1.63;;;;;;;11.70;67.35;96393.63;4993056;28;20027;-65
2022/05/03 08:32:25;;;;;;;4.82;1.80;;;;;;;11.37;66.34;96395.91;4993122;28;20084;-64
2022/05/03 08:34:51;;;;;;;2.83;2.00;;;;;;;11.08;66.94;96408.47;4993125;28;20022;-62
2022/05/03 08:42:44;;;;;;;10.40;2.22;;;;;;;10.69;70.76;96402.22;4995353;28;20141;-64
2022/05/03 08:45:10;;;;;;;4.15;2.10;;;;;;;10.57;67.50;96413.19;4979029;28;20507;-64
2022/05/03 08:47:37;;;;;;;3.63;2.10;;;;;;;10.64;69.97;96412.03;4996408;28;20022;-64
2022/05/03 08:50:08;;;;;;;1.67;1.48;;;;;;;10.67;70.95;96411.91;4996340;28;20045;-63
2022/05/03 08:53:05;;;;;;;3.40;2.30;;;;;;;10.74;70.05;96409.88;4996557;28;20018;-63
2022/05/03 08:55:31;;;;;;;3.30;2.08;;;;;;;10.65;73.28;96405.03;4980757;28;20133;-64
2022/05/03 08:57:56;;;;;;;2.97;2.00;;;;;;;10.60;72.94;96408.66;4996501;28;20068;-63
2022/05/03 09:00:23;;;;;;;4.30;1.98;;;;;;;10.68;72.14;96412.72;4996465;28;20117;-66
2022/05/03 09:02:52;;;;;;;8.48;1.90;;;;;;;10.77;70.10;96404.53;4996415;28;20048;-63
2022/05/03 09:05:18;;;;;;;3.25;2.17;;;;;;;10.84;70.62;96411.19;4996245;28;20029;-64
2022/05/03 09:07:59;;;;;;;2.45;2.00;;;;;;;10.99;72.25;96408.88;4995847;28;20125;-64
2022/05/03 09:10:33;;;;;;;3.65;1.85;;;;;;;11.02;66.70;96407.91;4995982;28;20030;-63
2022/05/03 09:13:26;;;;;;;3.45;2.10;;;;;;;11.08;66.85;96399.78;4996118;28;20039;-66
2022/05/03 09:15:56;;;;;;;2.78;1.50;;;;;;;11.01;69.60;96412.28;4992713;28;20038;-66
2022/05/03 09:18:29;;;;;;;6.65;1.75;;;;;;;10.91;67.29;96413.56;4995925;28;20022;-65
2022/05/03 09:23:51;;;;;;;4.47;2.70;;;;;;;10.95;67.54;96416.00;4996102;28;20508;-65
2022/05/03 09:26:22;;;;;;;2.97;2.13;;;;;;;11.03;67.78;96420.91;4995683;28;20109;-64
2022/05/03 09:29:03;;;;;;;3.78;2.15;;;;;;;11.10;68.92;96416.25;4995707;28;20022;-64
2022/05/03 09:31:36;;;;;;;2.78;2.20;;;;;;;11.18;69.60;96416.81;4995631;28;20492;-64
2022/05/03 09:34:03;;;;;;;3.95;2.20;;;;;;;11.19;69.49;96407.16;4995687;28;20062;-63
2022/05/03 09:36:42;;;;;;;2.85;2.22;;;;;;;11.20;68.59;96401.88;4995630;28;20047;-65
2022/05/03 09:39:07;;;;;;;2.85;2.00;;;;;;;11.31;67.42;96393.56;4995643;28;20030;-66
2022/05/03 09:41:33;;;;;;;2.15;1.98;;;;;;;11.42;67.46;96395.72;4995576;28;20027;-64
2022/05/03 09:44:08;;;;;;;2.90;2.28;;;;;;;11.53;68.17;96389.97;4995289;28;20038;-66
2022/05/03 09:46:53;;;;;;;3.72;2.45;;;;;;;11.43;66.87;96400.03;4995281;28;20026;-64
2022/05/03 09:49:20;;;;;;;3.45;2.22;;;;;;;11.36;68.43;96390.75;4995277;28;20045;-63
2022/05/03 09:51:48;;;;;;;3.78;2.55;;;;;;;11.33;69.54;96396.97;4995225;28;20038;-65
2022/05/03 09:54:14;;;;;;;4.10;2.25;;;;;;;11.33;69.33;96393.50;4995214;28;20157;-65
2022/05/03 09:56:41;;;;;;;3.15;2.13;;;;;;;11.34;67.38;96396.03;4995146;28;20105;-64
2022/05/03 09:59:08;;;;;;;2.47;1.77;;;;;;;11.36;65.76;96388.97;4995073;28;20069;-63
2022/05/03 10:01:36;;;;;;;4.40;2.50;;;;;;;11.34;66.82;96395.19;4995121;28;20037;-65
2022/05/03 10:04:06;;;;;;;3.33;2.15;;;;;;;11.47;63.70;96395.53;4995133;28;20014;-65
2022/05/03 10:06:34;;;;;;;2.45;2.25;;;;;;;11.49;67.77;96394.53;4977539;28;20500;-66
2022/05/03 10:09:00;;;;;;;2.75;2.00;;;;;;;11.57;64.70;96394.19;4977478;28;20026;-66
2022/05/03 10:11:27;;;;;;;3.75;1.88;;;;;;;11.65;64.60;96396.44;4994903;28;20041;-66
2022/05/03 10:13:53;;;;;;;2.22;1.92;;;;;;;11.66;62.31;96398.16;4994750;28;20030;-64
2022/05/03 10:21:57;;;;;;;3.30;1.60;;;;;;;11.32;63.06;96405.72;4995053;28;20396;-66
2022/05/03 10:24:24;;;;;;;;;;;;;;;11.29;62.55;96407.66;4995159;28;20033;-64
2022/05/03 10:26:58;;;;;;;3.78;1.60;;;;;;;11.02;59.86;96405.28;4994747;28;20269;-66
2022/05/03 10:29:26;;;;;;;2.72;1.73;;;;;;;10.94;63.75;96411.69;4994674;28;20026;-65
2022/05/03 10:31:54;;;;;;;4.10;1.73;;;;;;;11.04;63.98;96406.91;4994516;28;20388;-64
2022/05/03 10:34:41;;;;;;;7.65;1.90;;;;;;;10.93;64.79;96415.19;4994584;28;20023;-64
2022/05/03 10:37:10;;;;;;;1.98;1.52;;;;;;;10.63;68.61;96420.78;4994629;28;20117;-65
2022/05/03 10:39:51;;;;;;;5.93;1.70;;;;;;;10.33;71.18;96429.75;4994538;28;20450;-63
2022/05/03 10:42:22;;;;;;;1.63;1.33;;;;;;;10.15;71.85;96426.09;4994559;28;20065;-64
2022/05/03 10:44:53;;;;;;;;;;;;;;;9.69;72.90;96428.66;4994588;28;20129;-63
2022/05/03 10:47:21;;;;;;;2.53;1.02;;;;;;;9.54;72.83;96438.72;4994224;28;20014;-65
2022/05/03 10:50:17;;;;;;;1.05;0.93;;;;;;;9.38;73.92;96427.13;4994383;28;20026;-63
2022/05/03 10:53:09;;;;;;;1.50;0.93;;;;;;;9.33;75.01;96438.56;4994192;28;20026;-64
2022/05/03 10:56:01;;;;;;;2.35;1.10;;;;;;;9.26;75.47;96439.69;4993885;28;20038;-65
2022/05/03 10:58:35;;;;;;;1.70;1.23;;;;;;;9.25;76.20;96434.53;4994113;28;20069;-63
2022/05/03 11:01:20;;;;;;;1.20;1.10;;;;;;;9.13;75.32;96433.19;4994212;28;20022;-63
2022/05/03 11:03:48;;;;;;;2.55;1.10;;;;;;;9.22;75.83;96430.28;4993502;28;20045;-64
2022/05/03 11:06:23;;;;;;;1.48;1.33;;;;;;;9.31;76.30;96437.78;4994099;28;20034;-63
2022/05/03 11:11:39;;;;;;;1.73;1.27;;;;;;;9.26;75.18;96433.63;4993955;28;20125;-65
2022/05/03 11:14:25;;;;;;;2.17;1.25;;;;;;;9.26;74.07;96426.66;4993805;28;20041;-63
2022/05/03 11:17:08;;;;;;;1.65;1.40;;;;;;;9.44;74.25;96426.91;4980231;28;20125;-63
2022/05/03 11:19:49;;;;;;;1.08;1.00;;;;;;;9.56;73.21;96426.47;4993820;28;20035;-64
2022/05/03 11:22:29;;;;;;;2.17;1.10;;;;;;;9.54;71.93;96423.06;4993827;28;20469;-65
2022/05/03 11:24:57;;;;;;;1.00;1.00;;;;;;;9.52;73.18;96426.63;4993822;28;20031;-63
2022/05/03 11:27:24;;;;;;;2.00;1.15;;;;;;;9.47;72.10;96421.56;4993580;28;20037;-63
2022/05/03 11:29:56;;;;;;;0.90;0.90;;;;;;;9.60;73.10;96422.84;4993559;28;20030;-61
2022/05/03 11:32:39;;;;;;;1.52;1.10;;;;;;;9.78;72.57;96422.25;4993639;28;20093;-64
2022/05/03 11:35:16;;;;;;;1.33;1.20;;;;;;;9.96;71.43;96426.78;4993779;28;20026;-65
2022/05/03 11:37:59;;;;;;;1.25;1.15;;;;;;;10.22;73.93;96426.69;4993588;28;20029;-62
2022/05/03 11:40:29;;;;;;;1.30;0.90;;;;;;;10.43;69.48;96422.41;4993595;28;20030;-64
2022/05/03 11:42:54;;;;;;;1.80;1.17;;;;;;;10.64;71.40;96429.47;4993399;28;20098;-64
2022/05/03 11:45:20;;;;;;;1.50;1.40;;;;;;;10.82;71.59;96418.28;4993610;28;20126;-63
2022/05/03 11:47:50;;;;;;;1.30;1.20;;;;;;;10.99;66.84;96421.97;4993500;28;20030;-64
2022/05/03 11:55:59;;;;;;;2.47;1.17;;;;;;;11.30;64.93;96407.56;4993934;28;20603;-63
2022/05/03 11:58:24;;;;;;;2.08;1.48;;;;;;;11.48;65.61;96415.53;4993452;28;20105;-63
2022/05/03 12:00:50;;;;;;;2.17;1.40;;;;;;;11.39;66.01;96411.56;4993447;28;20030;-62
2022/05/03 12:03:16;;;;;;;1.52;1.42;;;;;;;11.34;68.34;96417.00;4993371;28;20097;-63
2022/05/03 12:05:59;;;;;;;1.60;1.50;;;;;;;11.41;67.71;96406.25;4993424;28;20057;-66
2022/05/03 12:08:25;;;;;;;3.83;1.80;;;;;;;11.45;69.28;96406.06;4993187;28;20038;-63
2022/05/03 12:10:51;;;;;;;3.08;1.30;;;;;;;11.67;66.90;96410.34;4975876;28;20038;-66
2022/05/03 12:13:27;;;;;;;2.25;1.50;;;;;;;11.60;64.99;96401.06;4993255;28;20019;-64
2022/05/03 12:15:58;;;;;;;1.83;1.52;;;;;;;11.65;66.34;96399.06;4996692;28;20034;-62
2022/05/03 12:18:32;;;;;;;1.63;1.52;;;;;;;11.62;66.99;96397.44;4997084;28;20457;-64
2022/05/03 12:21:03;;;;;;;1.75;1.60;;;;;;;11.76;68.00;96398.59;4997003;28;20027;-65
2022/05/03 12:23:34;;;;;;;;;;;;;;;11.95;66.86;96403.84;4997358;28;20108;-62
2022/05/03 12:26:13;;;;;;;4.97;1.48;;;;;;;11.93;65.76;96395.22;4996905;28;19921;-62
2022/05/03 12:28:41;;;;;;;2.53;1.52;;;;;;;11.88;66.67;96397.19;4996767;28;20041;-64
2022/05/03 12:31:09;;;;;;;2.95;1.90;;;;;;;11.93;66.76;96397.84;4996697;28;20021;-64
2022/05/03 12:33:41;;;;;;;4.28;2.13;;;;;;;11.98;67.72;96400.25;4996657;28;20073;-64